Terminal Aerodrome Forecast
Issued by NWS

Home | Current Version | Previous Version | Text Only | Print | Product List | Glossary On
Versions: 1 2 3 4 5 6 7 8 9 10 11 12
311
FTUS44 KLZK 240539
TAFHRO
TAF
KHRO 240539Z 2406/2506 33003KT P6SM OVC110
      TEMPO 2409/2413 5SM BR
     FM241500 05005KT P6SM SCT040 BKN250
     FM241800 09006KT P6SM SCT050
     FM250000 16003KT P6SM SCT250=

USA.gov is the U.S. government's official web portal to all federal, state and local government web resources and services.